Time;durP1;ratioP1;P1;durP2;ratioP2;P2;SDS_P1;SDS_P2;PMS_P1;PMS_P2;Temp;Humidity;BMP_temperature;BMP_pressure;BME280_temperature;BME280_humidity;BME280_pressure;Samples;Min_cycle;Max_cycle;Signal;HPM_P1;HPM_P2
2021/11/03 00:01:36;;;;;;;5.83;4.65;;;;;;;7.45;91.97;98186.74;1653983;85;21001;-62
2021/11/03 00:04:04;;;;;;;9.58;5.42;;;;;;;7.45;92.15;98184.14;1704591;83;21988;-62
2021/11/03 00:06:32;;;;;;;7.45;4.35;;;;;;;7.47;92.13;98179.70;1692657;83;22071;-62
2021/11/03 00:09:01;;;;;;;7.78;5.37;;;;;;;7.48;92.17;98176.17;1711545;82;21635;-62
2021/11/03 00:11:30;;;;;;;4.25;3.33;;;;;;;7.49;92.15;98183.06;1706070;83;20902;-62
2021/11/03 00:13:57;;;;;;;5.95;4.25;;;;;;;7.49;92.16;98183.06;1705125;82;20994;-62
2021/11/03 00:16:24;;;;;;;5.80;4.17;;;;;;;7.52;92.25;98188.06;1708571;83;21036;-62
2021/11/03 00:18:51;;;;;;;3.70;3.30;;;;;;;7.55;92.28;98183.52;1704311;83;20916;-62
2021/11/03 00:21:17;;;;;;;5.85;3.05;;;;;;;7.52;92.03;98185.00;1704695;83;20944;-62
2021/11/03 00:23:44;;;;;;;4.97;3.37;;;;;;;7.51;92.07;98186.41;1706643;83;20994;-62
2021/11/03 00:26:11;;;;;;;3.67;2.65;;;;;;;7.52;92.16;98186.77;1708075;83;20955;-63
2021/11/03 00:28:38;;;;;;;6.30;3.25;;;;;;;7.49;91.96;98186.95;1705851;83;21030;-63
2021/11/03 00:31:05;;;;;;;3.55;2.45;;;;;;;7.48;92.03;98185.27;1707859;83;20966;-63
2021/11/03 00:33:33;;;;;;;5.53;3.05;;;;;;;7.45;91.97;98186.31;1671959;83;20911;-63
2021/11/03 00:36:01;;;;;;;7.53;3.47;;;;;;;7.45;92.05;98186.74;1705321;82;20987;-63
2021/11/03 00:38:28;;;;;;;6.17;2.27;;;;;;;7.48;92.27;98186.56;1707595;82;20950;-63
2021/11/03 00:40:55;;;;;;;4.00;2.80;;;;;;;7.52;92.31;98186.77;1708201;82;21023;-63
2021/11/03 00:43:22;;;;;;;5.72;3.33;;;;;;;7.55;92.32;98182.69;1705794;82;21510;-63
2021/11/03 00:45:49;;;;;;;4.28;3.20;;;;;;;7.56;92.14;98196.03;1711576;83;20898;-63
2021/11/03 00:48:17;;;;;;;5.72;2.65;;;;;;;7.54;92.07;98187.52;1708514;82;20982;-62
2021/11/03 00:50:44;;;;;;;4.50;2.95;;;;;;;7.54;92.07;98187.52;1706507;82;20975;-63
2021/11/03 00:53:11;;;;;;;5.05;2.85;;;;;;;7.55;92.20;98190.48;1706312;82;21097;-63
2021/11/03 00:55:40;;;;;;;5.10;2.72;;;;;;;7.56;92.16;98188.24;1708732;82;26867;-62
2021/11/03 00:58:07;;;;;;;3.65;2.40;;;;;;;7.55;92.09;98186.58;1707236;82;20957;-63
2021/11/03 01:00:34;;;;;;;4.50;2.58;;;;;;;7.55;92.13;98185.28;1682843;84;20988;-63
2021/11/03 01:03:05;;;;;;;;;;;;;;;7.56;92.16;98186.95;1685826;84;20954;-63
2021/11/03 01:05:37;;;;;;;6.10;3.27;;;;;;;7.58;92.20;98187.70;1660914;85;21103;-63
2021/11/03 01:08:03;;;;;;;3.67;2.00;;;;;;;7.55;92.04;98195.67;1706534;83;20966;-63
2021/11/03 01:10:31;;;;;;;3.42;1.98;;;;;;;7.53;91.99;98192.33;1706196;83;20979;-63
2021/11/03 01:12:58;;;;;;;4.08;2.05;;;;;;;7.50;92.00;98200.30;1710654;82;20943;-63
2021/11/03 01:15:25;;;;;;;3.85;2.37;;;;;;;7.45;91.75;98199.73;1711587;82;20962;-63
2021/11/03 01:17:55;;;;;;;4.03;2.20;;;;;;;7.34;91.58;98205.58;1711506;82;21043;-63
2021/11/03 01:20:23;;;;;;;3.80;2.00;;;;;;;7.25;91.63;98201.72;1654257;85;21466;-63
2021/11/03 01:22:50;;;;;;;5.30;2.33;;;;;;;7.19;91.77;98202.08;1703613;82;20983;-63
2021/11/03 01:25:17;;;;;;;3.27;1.87;;;;;;;7.15;91.92;98198.01;1705422;82;20957;-63
2021/11/03 01:27:44;;;;;;;3.70;2.40;;;;;;;7.17;92.11;98196.17;1709624;82;20989;-62
2021/11/03 01:30:15;;;;;;;2.63;2.23;;;;;;;7.20;92.23;98202.48;1702193;82;21106;-63
2021/11/03 01:32:43;;;;;;;4.40;2.47;;;;;;;7.24;92.31;98205.26;1711105;82;38604;-63
2021/11/03 01:35:10;;;;;;;2.62;2.10;;;;;;;7.29;92.39;98196.75;1708273;83;20923;-63
2021/11/03 01:37:38;;;;;;;4.12;2.05;;;;;;;7.35;92.35;98196.38;1698103;83;21429;-63
2021/11/03 01:40:09;;;;;;;3.47;2.00;;;;;;;7.37;92.31;98198.44;1711770;82;20974;-63
2021/11/03 01:42:37;;;;;;;5.28;3.20;;;;;;;7.38;92.27;98197.50;1711628;83;21855;-63
2021/11/03 01:45:08;;;;;;;3.15;2.85;;;;;;;7.39;92.31;98196.59;1711719;83;20989;-63
2021/11/03 01:47:48;;;;;;;2.80;2.30;;;;;;;7.44;92.40;98195.47;1708815;83;20994;-63
2021/11/03 01:50:41;;;;;;;3.90;2.30;;;;;;;7.47;92.36;98197.89;1709538;82;20973;-63
2021/11/03 01:53:18;;;;;;;4.37;2.30;;;;;;;7.43;92.15;98204.20;1709287;82;20947;-63
2021/11/03 01:55:53;;;;;;;3.58;2.20;;;;;;;7.43;92.33;98199.84;1710953;83;21056;-63
2021/11/03 01:58:27;;;;;;;2.80;2.25;;;;;;;7.45;92.39;98199.30;1704581;82;21619;-62
2021/11/03 02:00:57;;;;;;;4.70;2.92;;;;;;;7.46;92.33;98206.61;1705977;82;21045;-63
2021/11/03 02:03:28;;;;;;;4.40;2.72;;;;;;;7.47;92.29;98201.78;1717589;82;21011;-63
2021/11/03 02:06:05;;;;;;;4.28;2.90;;;;;;;7.44;92.26;98198.06;1711929;82;20978;-63
2021/11/03 02:08:35;;;;;;;4.75;2.77;;;;;;;7.39;92.11;98209.58;1715750;82;21042;-62
2021/11/03 02:11:02;;;;;;;5.30;3.10;;;;;;;7.37;92.26;98204.92;1717588;82;21021;-63
2021/11/03 02:13:30;;;;;;;4.72;3.08;;;;;;;7.37;92.31;98203.63;1717281;82;21603;-63
2021/11/03 02:15:56;;;;;;;6.08;4.17;;;;;;;7.36;92.26;98204.53;1716177;82;21485;-62
2021/11/03 02:18:24;;;;;;;3.87;3.47;;;;;;;7.36;92.25;98201.94;1720651;82;21058;-62
2021/11/03 02:20:53;;;;;;;5.70;4.65;;;;;;;7.33;92.16;98207.31;1718993;82;21107;-63
2021/11/03 02:23:47;;;;;;;9.08;6.15;;;;;;;7.32;92.20;98200.92;1715458;82;20906;-63
2021/11/03 02:26:25;;;;;;;7.08;5.72;;;;;;;7.31;92.30;98202.69;1719703;82;21000;-63
2021/11/03 02:28:52;;;;;;;10.10;7.12;;;;;;;7.34;92.45;98201.68;1713705;82;21465;-63
2021/11/03 02:31:40;;;;;;;11.85;8.13;;;;;;;7.36;92.36;98203.23;1716395;82;20882;-63
2021/11/03 02:34:11;;;;;;;11.20;6.72;;;;;;;7.32;92.25;98195.27;1716982;82;21102;-63
2021/11/03 02:37:01;;;;;;;11.97;8.48;;;;;;;7.31;92.28;98196.20;1714967;82;20951;-63
2021/11/03 02:39:45;;;;;;;7.87;6.20;;;;;;;7.32;92.37;98197.86;1718066;82;20984;-63
2021/11/03 02:42:13;;;;;;;10.32;6.85;;;;;;;7.33;92.41;98207.31;1697113;82;21477;-63
2021/11/03 02:44:42;;;;;;;10.50;8.33;;;;;;;7.32;92.31;98197.86;1715767;82;20986;-63
2021/11/03 02:47:09;;;;;;;11.33;7.45;;;;;;;7.32;92.32;98199.63;1718089;82;21119;-63
2021/11/03 02:49:37;;;;;;;7.17;6.10;;;;;;;7.31;92.32;98201.39;1716914;82;20915;-63
2021/11/03 02:52:18;;;;;;;13.50;8.83;;;;;;;7.31;92.33;98201.39;1716878;82;21005;-63
2021/11/03 02:54:45;;;;;;;9.30;6.30;;;;;;;7.33;92.43;98199.52;1709934;82;20878;-63
2021/11/03 02:57:11;;;;;;;8.93;6.13;;;;;;;7.35;92.45;98208.06;1716356;82;20945;-63
2021/11/03 02:59:39;;;;;;;8.13;6.53;;;;;;;7.36;92.39;98207.59;1715818;82;21004;-63
2021/11/03 03:02:06;;;;;;;9.95;7.95;;;;;;;7.34;92.33;98207.70;1721336;82;20935;-63
2021/11/03 03:04:43;;;;;;;11.15;8.95;;;;;;;7.35;92.46;98210.66;1721245;82;21501;-63
2021/11/03 03:07:12;;;;;;;11.38;8.43;;;;;;;7.37;92.50;98206.22;1723129;81;20984;-63
2021/11/03 03:09:39;;;;;;;7.62;6.37;;;;;;;7.42;92.51;98215.49;1724830;82;21053;-63
2021/11/03 03:12:11;;;;;;;7.45;6.33;;;;;;;7.43;92.45;98210.69;1718457;82;21036;-63
2021/11/03 03:14:41;;;;;;;7.97;5.85;;;;;;;7.40;92.42;98207.81;1713362;82;21046;-63
2021/11/03 03:17:11;;;;;;;12.33;7.85;;;;;;;7.36;92.26;98212.32;1714791;82;21038;-63
2021/11/03 03:19:38;;;;;;;10.20;7.85;;;;;;;7.35;92.32;98213.26;1718968;82;21013;-62
2021/11/03 03:22:05;;;;;;;7.10;6.35;;;;;;;7.32;92.28;98210.84;1717939;82;20923;-63
2021/11/03 03:24:32;;;;;;;11.53;7.60;;;;;;;7.34;92.33;98215.49;1720382;82;21060;-63
2021/11/03 03:26:59;;;;;;;8.18;5.92;;;;;;;7.33;92.31;98217.70;1714514;82;21436;-62
2021/11/03 03:29:27;;;;;;;11.78;8.38;;;;;;;7.33;92.42;98212.50;1713747;82;21545;-63
2021/11/03 03:31:53;;;;;;;10.82;6.12;;;;;;;7.33;92.41;98207.78;1715738;82;21387;-62
2021/11/03 03:34:24;;;;;;;8.03;6.10;;;;;;;7.33;92.42;98207.31;1717887;82;21509;-63
2021/11/03 03:36:54;;;;;;;12.40;8.43;;;;;;;7.34;92.40;98210.77;1720987;82;22713;-63
2021/11/03 03:39:23;;;;;;;10.75;7.70;;;;;;;7.31;92.31;98214.38;1716307;82;20925;-63
2021/11/03 03:41:57;;;;;;;11.97;8.25;;;;;;;7.27;92.25;98211.56;1717035;82;21544;-63
2021/11/03 03:44:24;;;;;;;9.73;7.12;;;;;;;7.26;92.33;98213.80;1715794;82;20895;-63
2021/11/03 03:46:51;;;;;;;11.37;7.97;;;;;;;7.21;92.23;98211.92;1715673;82;20895;-63
2021/11/03 03:49:19;;;;;;;10.85;8.50;;;;;;;7.19;92.31;98212.47;1715005;82;22382;-63
2021/11/03 03:51:45;;;;;;;20.25;9.60;;;;;;;7.18;92.33;98213.41;1717147;82;20950;-63
2021/11/03 03:54:13;;;;;;;10.73;8.57;;;;;;;7.17;92.32;98216.94;1713757;82;20947;-63
2021/11/03 03:56:39;;;;;;;14.00;7.50;;;;;;;7.15;92.34;98212.28;1714320;82;20897;-63
2021/11/03 03:59:06;;;;;;;14.33;9.05;;;;;;;7.14;92.37;98217.08;1713756;82;21526;-64
2021/11/03 04:01:33;;;;;;;13.98;9.13;;;;;;;7.15;92.47;98214.88;1717106;82;21867;-63
2021/11/03 04:04:00;;;;;;;15.38;9.65;;;;;;;7.14;92.44;98209.30;1720432;82;20914;-63
2021/11/03 04:06:27;;;;;;;10.03;7.60;;;;;;;7.14;92.44;98209.30;1722810;82;28073;-64
2021/11/03 04:08:53;;;;;;;12.47;9.53;;;;;;;7.15;92.45;98205.80;1720402;82;20997;-63
2021/11/03 04:11:22;;;;;;;12.25;8.00;;;;;;;7.15;92.43;98210.98;1700632;82;21047;-63
2021/11/03 04:13:49;;;;;;;14.10;8.73;;;;;;;7.12;92.36;98200.78;1720435;82;21770;-63
2021/11/03 04:16:16;;;;;;;13.13;9.08;;;;;;;7.10;92.35;98206.52;1722626;82;20929;-63
2021/11/03 04:18:42;;;;;;;16.77;9.65;;;;;;;7.09;92.33;98212.64;1725108;82;20902;-63
2021/11/03 04:21:10;;;;;;;10.78;9.50;;;;;;;7.07;92.34;98214.48;1721716;82;20949;-63
2021/11/03 04:23:37;;;;;;;10.93;7.28;;;;;;;7.06;92.41;98224.50;1713626;82;20958;-63
2021/11/03 04:26:05;;;;;;;13.87;9.63;;;;;;;7.04;92.37;98221.98;1721214;82;21072;-63
2021/11/03 04:28:32;;;;;;;12.90;9.10;;;;;;;7.03;92.40;98219.45;1698860;82;21361;-63
2021/11/03 04:30:59;;;;;;;15.28;9.93;;;;;;;7.04;92.44;98234.13;1720591;82;21469;-63
2021/11/03 04:33:26;;;;;;;14.18;11.35;;;;;;;7.03;92.46;98222.05;1722780;82;20915;-63
2021/11/03 04:35:52;;;;;;;15.48;10.90;;;;;;;7.02;92.45;98225.58;1722095;82;20962;-63
2021/11/03 04:38:19;;;;;;;13.65;9.88;;;;;;;7.02;92.48;98228.17;1724598;82;21072;-63
2021/11/03 04:40:45;;;;;;;14.90;11.18;;;;;;;7.02;92.48;98230.77;1716559;82;20942;-63
2021/11/03 04:43:12;;;;;;;18.45;11.75;;;;;;;7.01;92.42;98227.81;1719032;82;21410;-63
2021/11/03 04:45:39;;;;;;;15.23;11.15;;;;;;;7.01;92.53;98231.70;1718950;82;20950;-63
2021/11/03 04:48:06;;;;;;;13.77;10.00;;;;;;;7.01;92.48;98231.70;1719822;82;20890;-63
2021/11/03 04:50:33;;;;;;;;;;;;;;;7.02;92.52;98233.36;1715042;82;21036;-63
2021/11/03 04:53:00;;;;;;;21.80;10.85;;;;;;;7.02;92.56;98233.36;1716594;82;20142;-63
2021/11/03 04:55:27;;;;;;;12.58;8.70;;;;;;;7.00;92.56;98240.39;1725178;82;20951;-63
2021/11/03 04:57:54;;;;;;;13.90;10.23;;;;;;;7.02;92.65;98243.74;1722186;82;20917;-63
2021/11/03 05:00:28;;;;;;;10.45;8.75;;;;;;;7.04;92.68;98244.50;1717149;82;20957;-63
2021/11/03 05:02:56;;;;;;;16.23;10.35;;;;;;;7.05;92.58;98246.16;1711728;81;21089;-63
2021/11/03 05:05:24;;;;;;;10.40;8.15;;;;;;;7.04;92.58;98252.29;1716413;81;20882;-63
2021/11/03 05:07:52;;;;;;;13.95;9.08;;;;;;;7.04;92.59;98249.69;1714179;82;20945;-63
2021/11/03 05:10:19;;;;;;;;;;;;;;;7.06;92.65;98255.64;1717545;82;21909;-63
2021/11/03 05:12:46;;;;;;;14.85;10.45;;;;;;;7.06;92.61;98253.05;1714070;82;20097;-63
2021/11/03 05:15:14;;;;;;;17.20;11.30;;;;;;;7.05;92.63;98256.55;1709897;82;26836;-63
2021/11/03 05:17:40;;;;;;;17.90;11.57;;;;;;;7.05;92.64;98259.14;1713139;82;20930;-63
2021/11/03 05:20:09;;;;;;;16.13;10.57;;;;;;;7.05;92.59;98263.03;1709575;82;20981;-63
2021/11/03 05:22:36;;;;;;;15.28;10.32;;;;;;;7.05;92.66;98261.73;1711182;82;21538;-63
2021/11/03 05:25:04;;;;;;;18.70;11.53;;;;;;;7.06;92.64;98262.13;1711210;83;21478;-63
2021/11/03 05:27:31;;;;;;;18.35;11.60;;;;;;;7.04;92.59;98258.78;1708114;83;21047;-63
2021/11/03 05:29:58;;;;;;;17.07;11.38;;;;;;;7.03;92.62;98258.38;1714845;83;21010;-63
2021/11/03 05:32:25;;;;;;;14.33;9.63;;;;;;;7.04;92.66;98273.05;1718555;82;20972;-63
2021/11/03 05:34:52;;;;;;;17.27;11.25;;;;;;;7.03;92.58;98270.06;1713477;82;20910;-63
2021/11/03 05:37:19;;;;;;;12.47;9.25;;;;;;;7.03;92.68;98273.95;1710518;82;20910;-63
2021/11/03 05:39:47;;;;;;;16.50;9.23;;;;;;;7.04;92.68;98274.34;1712263;82;21052;-63
2021/11/03 05:42:13;;;;;;;;;;;;;;;7.03;92.59;98272.66;1715450;82;20929;-63
2021/11/03 05:44:40;;;;;;;18.52;12.00;;;;;;;7.02;92.63;98274.42;1716842;82;20109;-63
2021/11/03 05:47:07;;;;;;;14.43;10.58;;;;;;;7.03;92.71;98281.73;1712497;82;21545;-63
2021/11/03 05:49:35;;;;;;;12.95;8.98;;;;;;;7.01;92.68;98282.31;1716566;83;20948;-63
2021/11/03 05:52:05;;;;;;;17.60;10.93;;;;;;;7.02;92.72;98282.67;1713519;82;21050;-64
2021/11/03 05:54:32;;;;;;;11.55;8.95;;;;;;;7.00;92.62;98283.20;1694206;83;21441;-63
2021/11/03 05:57:02;;;;;;;15.08;11.35;;;;;;;6.99;92.63;98285.44;1712490;81;20954;-63
2021/11/03 05:59:30;;;;;;;13.28;9.10;;;;;;;6.98;92.69;98288.97;1714326;82;20989;-63
2021/11/03 06:01:57;;;;;;;14.23;10.85;;;;;;;7.01;92.75;98295.28;1715371;82;20965;-63
2021/11/03 06:04:24;;;;;;;15.90;10.85;;;;;;;7.02;92.73;98298.24;1721511;82;21250;-63
2021/11/03 06:06:52;;;;;;;12.23;9.10;;;;;;;7.02;92.65;98300.84;1719544;82;21021;-63
2021/11/03 06:09:20;;;;;;;14.55;10.78;;;;;;;7.01;92.67;98299.17;1720635;82;20938;-63
2021/11/03 06:11:50;;;;;;;13.03;9.28;;;;;;;7.00;92.64;98296.19;1715679;82;20931;-63
2021/11/03 06:14:17;;;;;;;15.38;10.43;;;;;;;7.01;92.69;98303.06;1713230;82;20958;-63
2021/11/03 06:16:44;;;;;;;13.93;10.35;;;;;;;7.02;92.70;98308.63;1715722;82;21054;-63
2021/11/03 06:19:11;;;;;;;14.38;8.00;;;;;;;7.01;92.63;98317.34;1719903;82;20974;-63
2021/11/03 06:21:37;;;;;;;13.75;10.58;;;;;;;6.98;92.64;98318.34;1726174;82;21013;-63
2021/11/03 06:24:05;;;;;;;14.78;10.85;;;;;;;7.00;92.74;98319.54;1717639;82;20902;-63
2021/11/03 06:26:34;;;;;;;18.20;11.38;;;;;;;7.01;92.68;98319.94;1715040;82;21498;-63
2021/11/03 06:29:01;;;;;;;13.08;10.50;;;;;;;7.03;92.72;98325.86;1721343;82;21044;-63
2021/11/03 06:31:28;;;;;;;12.95;10.00;;;;;;;7.02;92.60;98321.59;1718666;82;20957;-63
2021/11/03 06:33:55;;;;;;;11.80;8.45;;;;;;;6.99;92.52;98329.55;1727724;82;20928;-63
2021/11/03 06:36:22;;;;;;;13.18;10.08;;;;;;;6.93;92.49;98334.16;1716557;82;21016;-63
2021/11/03 06:38:49;;;;;;;11.83;8.83;;;;;;;6.94;92.65;98330.63;1717051;82;21025;-63
2021/11/03 06:41:17;;;;;;;13.30;9.25;;;;;;;6.99;92.67;98338.64;1717970;82;21014;-63
2021/11/03 06:43:45;;;;;;;14.95;9.60;;;;;;;7.01;92.67;98330.31;1718623;82;21508;-63
2021/11/03 06:46:12;;;;;;;16.60;11.00;;;;;;;7.00;92.58;98349.38;1722585;82;20978;-63
2021/11/03 06:48:39;;;;;;;13.48;10.45;;;;;;;7.00;92.66;98342.46;1718445;82;20970;-63
2021/11/03 06:51:12;;;;;;;;;;;;;;;7.05;92.73;98346.08;1728336;82;20945;-62
2021/11/03 06:53:38;;;;;;;16.52;10.38;;;;;;;7.05;92.63;98349.97;1723563;82;20118;-63
2021/11/03 06:56:06;;;;;;;16.25;11.50;;;;;;;7.08;92.73;98352.40;1718603;82;20886;-63
2021/11/03 06:58:33;;;;;;;20.05;13.13;;;;;;;7.12;92.78;98354.75;1721299;82;21480;-63
2021/11/03 07:01:03;;;;;;;13.55;10.60;;;;;;;7.13;92.59;98355.59;1716994;82;21005;-63
2021/11/03 07:03:33;;;;;;;16.30;11.80;;;;;;;7.14;92.59;98362.44;1720767;82;21072;-63
2021/11/03 07:06:00;;;;;;;16.12;11.08;;;;;;;7.15;92.65;98367.56;1715988;82;21178;-63
2021/11/03 07:08:27;;;;;;;12.25;9.45;;;;;;;7.16;92.64;98373.58;1719956;82;21508;-62
2021/11/03 07:10:57;;;;;;;22.02;13.32;;;;;;;7.18;92.63;98373.05;1718636;82;20997;-63
2021/11/03 07:13:25;;;;;;;15.95;11.33;;;;;;;7.18;92.58;98367.86;1722376;82;21576;-63
2021/11/03 07:15:53;;;;;;;14.58;10.35;;;;;;;7.18;92.49;98367.39;1724796;82;21470;-63
2021/11/03 07:18:21;;;;;;;16.40;10.45;;;;;;;7.17;92.42;98377.87;1720876;82;21880;-63
2021/11/03 07:20:47;;;;;;;16.17;11.00;;;;;;;7.18;92.58;98375.17;1719640;82;20962;-61
2021/11/03 07:23:18;;;;;;;14.37;9.87;;;;;;;7.22;92.56;98373.24;1721495;82;20954;-62
2021/11/03 07:25:47;;;;;;;11.40;9.35;;;;;;;7.26;92.57;98377.36;1719916;82;20941;-62
2021/11/03 07:28:17;;;;;;;15.58;11.20;;;;;;;7.29;92.58;98382.38;1720360;82;20950;-62
2021/11/03 07:30:45;;;;;;;13.75;9.88;;;;;;;7.34;92.57;98382.97;1720977;82;21038;-61
2021/11/03 07:33:13;;;;;;;13.22;10.30;;;;;;;7.40;92.58;98374.83;1722340;82;21495;-61
2021/11/03 07:35:41;;;;;;;12.63;9.23;;;;;;;7.43;92.46;98379.02;1720347;82;21659;-61
2021/11/03 07:38:09;;;;;;;;;;;;;;;7.47;92.41;98383.58;1719043;82;20899;-61
2021/11/03 07:40:44;;;;;;;12.25;9.68;;;;;;;7.50;92.42;98387.30;1721637;82;20088;-61
2021/11/03 07:43:14;;;;;;;22.58;12.73;;;;;;;7.54;92.41;98388.81;1722859;82;21158;-62
2021/11/03 07:45:44;;;;;;;14.63;10.40;;;;;;;7.55;92.27;98395.67;1716783;82;20943;-62
2021/11/03 07:48:12;;;;;;;12.28;9.43;;;;;;;7.58;92.33;98395.50;1719787;82;20942;-62
2021/11/03 07:50:44;;;;;;;15.03;10.03;;;;;;;7.63;92.38;98401.28;1726759;82;21590;-62
2021/11/03 07:53:11;;;;;;;11.00;8.30;;;;;;;7.70;92.49;98405.22;1720660;82;21518;-62
2021/11/03 07:55:43;;;;;;;15.15;9.25;;;;;;;7.74;92.28;98406.70;1724944;82;21534;-62
2021/11/03 07:58:21;;;;;;;11.90;9.08;;;;;;;7.72;92.08;98411.14;1720129;82;20972;-62
2021/11/03 08:00:48;;;;;;;13.72;8.75;;;;;;;7.75;92.34;98397.97;1722383;82;21037;-62
2021/11/03 08:03:15;;;;;;;14.18;9.90;;;;;;;7.79;92.25;98404.69;1694132;83;20930;-62
2021/11/03 08:05:42;;;;;;;15.20;9.80;;;;;;;7.80;92.10;98408.11;1689730;83;20963;-63
2021/11/03 08:08:13;;;;;;;11.25;8.55;;;;;;;7.84;92.30;98407.00;1695206;83;21116;-63
2021/11/03 08:10:45;;;;;;;14.07;10.45;;;;;;;7.84;92.03;98409.60;1692157;84;20956;-63
2021/11/03 08:13:16;;;;;;;12.85;9.23;;;;;;;7.83;92.05;98411.37;1691092;83;21449;-63
2021/11/03 08:15:42;;;;;;;14.55;9.70;;;;;;;7.92;92.32;98409.17;1692835;83;20930;-62
2021/11/03 08:18:11;;;;;;;12.50;9.30;;;;;;;7.96;92.22;98414.12;1661799;85;21031;-63
2021/11/03 08:20:39;;;;;;;15.13;10.15;;;;;;;8.01;92.20;98411.23;1632364;86;21054;-63
2021/11/03 08:23:06;;;;;;;13.30;10.00;;;;;;;8.08;92.30;98418.59;1687579;83;20940;-63
2021/11/03 08:25:54;;;;;;;14.55;10.30;;;;;;;8.13;92.12;98415.74;1683695;83;24342;-62
2021/11/03 08:28:29;;;;;;;14.60;10.35;;;;;;;8.12;91.79;98410.15;1683998;83;20957;-62
2021/11/03 08:31:08;;;;;;;19.07;11.20;;;;;;;8.14;91.84;98411.38;1684847;83;21524;-62
2021/11/03 08:33:43;;;;;;;11.73;10.05;;;;;;;8.20;92.12;98417.04;1673416;84;21134;-62
2021/11/03 08:36:32;;;;;;;13.18;10.38;;;;;;;8.25;92.00;98420.22;1685176;83;20890;-62
2021/11/03 08:39:08;;;;;;;16.42;10.40;;;;;;;8.37;92.30;98417.83;1673587;83;20996;-62
2021/11/03 08:41:54;;;;;;;13.38;9.63;;;;;;;8.44;92.02;98418.71;1665220;84;21153;-62
2021/11/03 08:44:40;;;;;;;12.63;9.98;;;;;;;8.51;92.03;98420.47;1689522;83;21470;-62
2021/11/03 08:47:15;;;;;;;15.13;10.23;;;;;;;8.60;91.84;98430.35;1686071;83;20966;-61
2021/11/03 08:49:53;;;;;;;11.57;9.23;;;;;;;8.65;91.77;98429.59;1661446;84;20937;-62
2021/11/03 08:52:34;;;;;;;10.13;8.88;;;;;;;8.71;91.71;98428.38;1676155;83;21566;-62
2021/11/03 08:55:04;;;;;;;13.00;9.38;;;;;;;8.78;91.70;98427.56;1669477;85;20994;-62
2021/11/03 08:57:34;;;;;;;13.25;9.63;;;;;;;8.82;91.66;98440.31;1634850;85;20943;-62
2021/11/03 09:00:06;;;;;;;12.98;8.08;;;;;;;8.89;91.76;98432.95;1646593;86;21065;-62
2021/11/03 09:02:33;;;;;;;10.45;8.63;;;;;;;8.96;91.68;98436.84;1698468;82;21484;-62
2021/11/03 09:05:00;;;;;;;13.45;8.70;;;;;;;8.98;91.37;98436.30;1712640;82;20982;-62
2021/11/03 09:07:27;;;;;;;14.73;9.08;;;;;;;9.00;91.29;98438.34;1691653;82;21015;-62
2021/11/03 09:09:53;;;;;;;11.95;8.58;;;;;;;9.01;91.32;98434.80;1712734;82;20899;-62
2021/11/03 09:12:20;;;;;;;11.48;8.63;;;;;;;9.02;91.17;98433.89;1715212;81;20970;-62
2021/11/03 09:14:47;;;;;;;14.17;8.90;;;;;;;9.04;91.20;98434.61;1709625;82;21036;-62
2021/11/03 09:32:11;;;;;;;10.53;8.20;;;;;;;9.66;90.62;98447.70;1771683;79;22846;-63
2021/11/03 09:34:34;;;;;;;14.30;8.58;;;;;;;9.62;90.31;98443.99;1752727;79;21531;-64
2021/11/03 09:37:03;;;;;;;10.25;8.08;;;;;;;9.59;90.42;98444.19;1758333;79;21093;-63
2021/11/03 09:39:30;;;;;;;14.05;9.58;;;;;;;9.63;90.54;98450.90;1726215;80;21845;-63
2021/11/03 09:41:59;;;;;;;11.15;8.58;;;;;;;9.71;90.69;98449.55;1786083;79;21481;-63
2021/11/03 09:44:31;;;;;;;12.90;7.97;;;;;;;9.72;90.73;98430.36;1749813;79;20988;-63
2021/11/03 09:47:29;;;;;;;9.80;8.03;;;;;;;9.88;90.57;98447.16;1778317;78;21021;-64
2021/11/03 09:50:02;;;;;;;8.58;7.65;;;;;;;9.99;90.67;98448.14;1787189;78;21095;-64
2021/11/03 09:52:39;;;;;;;10.25;7.85;;;;;;;10.05;90.10;98451.67;1742455;80;20976;-64
2021/11/03 09:55:20;;;;;;;10.35;7.92;;;;;;;10.04;90.07;98451.28;1726902;81;21089;-64
2021/11/03 09:57:57;;;;;;;9.75;6.65;;;;;;;10.12;90.17;98448.66;1736433;80;21613;-64
2021/11/03 10:00:46;;;;;;;9.48;8.25;;;;;;;10.17;89.86;98451.80;1774948;79;21739;-64
2021/11/03 10:03:43;;;;;;;12.33;9.00;;;;;;;10.16;89.69;98457.94;1778525;78;21170;-64
2021/11/03 10:06:51;;;;;;;12.23;7.95;;;;;;;10.09;89.42;98460.95;1753111;80;20914;-65
2021/11/03 10:09:19;;;;;;;11.10;7.37;;;;;;;10.17;90.06;98462.23;1752704;80;21005;-63
2021/11/03 10:11:49;;;;;;;8.53;7.63;;;;;;;10.08;89.91;98465.81;1783390;79;20929;-63
2021/11/03 10:14:16;;;;;;;9.53;7.37;;;;;;;10.05;90.00;98477.75;1716900;81;20960;-63
2021/11/03 10:16:48;;;;;;;11.20;7.97;;;;;;;10.01;89.71;98478.87;1746873;80;22050;-64
2021/11/03 10:19:20;;;;;;;12.98;9.23;;;;;;;9.86;88.96;98483.78;1745721;81;21034;-63
2021/11/03 10:22:05;;;;;;;9.45;7.90;;;;;;;9.78;89.31;98480.83;1749712;80;20958;-65
2021/11/03 10:24:35;;;;;;;8.68;6.85;;;;;;;9.74;89.21;98484.55;1744424;80;21054;-64
2021/11/03 10:27:11;;;;;;;12.03;7.13;;;;;;;9.70;89.29;98489.59;1731068;81;21640;-64
2021/11/03 10:29:51;;;;;;;10.08;7.05;;;;;;;9.60;88.91;98491.92;1755270;81;21473;-65
2021/11/03 10:32:38;;;;;;;8.63;6.65;;;;;;;9.49;89.04;98487.38;1739289;81;20910;-64
2021/11/03 10:35:26;;;;;;;12.20;8.28;;;;;;;9.52;89.29;98489.83;1723604;82;21060;-65
2021/11/03 10:38:12;;;;;;;11.10;7.80;;;;;;;9.60;89.50;98484.94;1723742;82;21524;-65
2021/11/03 10:40:56;;;;;;;11.03;6.95;;;;;;;9.76;89.54;98486.13;1677400;83;21146;-65
2021/11/03 10:43:45;;;;;;;8.65;7.08;;;;;;;9.94;89.33;98483.27;1685778;83;21130;-64
2021/11/03 10:46:19;;;;;;;9.63;7.25;;;;;;;10.07;89.19;98486.29;1677686;83;21009;-65
2021/11/03 10:49:00;;;;;;;14.68;9.33;;;;;;;10.13;88.72;98481.61;1679127;83;21566;-65
2021/11/03 10:51:38;;;;;;;12.58;9.20;;;;;;;10.21;89.06;98481.95;1663746;85;21380;-65
2021/11/03 10:54:21;;;;;;;11.00;8.63;;;;;;;10.35;89.15;98489.73;1680491;83;21141;-65
2021/11/03 10:57:39;;;;;;;11.80;9.00;;;;;;;10.45;89.04;98488.20;1677862;83;21037;-63
2021/11/03 11:00:29;;;;;;;13.50;8.73;;;;;;;10.55;88.98;98493.63;1709417;82;20977;-64
2021/11/03 11:03:19;;;;;;;14.87;9.03;;;;;;;10.64;88.88;98486.95;1702993;82;21165;-64
2021/11/03 11:05:52;;;;;;;10.90;8.40;;;;;;;10.70;88.85;98493.09;1715311;82;21114;-62
2021/11/03 11:08:23;;;;;;;12.18;9.03;;;;;;;10.83;88.82;98490.00;1703607;82;21103;-64
2021/11/03 11:11:05;;;;;;;11.15;9.00;;;;;;;10.76;87.95;98488.77;1702836;82;22779;-65
2021/11/03 11:13:43;;;;;;;11.48;7.80;;;;;;;10.69;87.92;98491.41;1685674;83;21100;-64
2021/11/03 11:16:20;;;;;;;8.78;7.70;;;;;;;10.67;87.79;98486.75;1682916;83;21243;-64
2021/11/03 11:18:57;;;;;;;14.50;8.50;;;;;;;10.64;87.48;98497.40;1710890;82;26628;-64
2021/11/03 11:21:47;;;;;;;12.60;8.85;;;;;;;10.52;87.45;98501.20;1736689;80;22439;-65
2021/11/03 11:24:40;;;;;;;11.88;8.00;;;;;;;10.46;87.39;98504.69;1680664;84;22701;-64
2021/11/03 11:27:34;;;;;;;13.90;8.80;;;;;;;10.44;87.59;98504.78;1675673;84;21411;-64
2021/11/03 11:30:16;;;;;;;14.78;8.33;;;;;;;10.44;87.69;98502.64;1679620;84;21065;-64
2021/11/03 11:33:03;;;;;;;11.80;8.48;;;;;;;10.40;87.12;98512.93;1678023;84;21260;-64
2021/11/03 11:35:51;;;;;;;11.45;8.15;;;;;;;10.22;87.07;98505.34;1682720;84;22204;-64
2021/11/03 11:40:14;;;;;;;10.88;7.15;;;;;;;10.22;87.45;98504.48;1852800;76;22409;-63
2021/11/03 11:43:02;;;;;;;10.40;7.72;;;;;;;10.09;87.14;98506.59;1844696;76;20946;-63
2021/11/03 11:45:35;;;;;;;9.35;6.87;;;;;;;10.06;87.33;98505.49;1810732;76;21204;-65
2021/11/03 11:48:16;;;;;;;10.20;7.12;;;;;;;10.07;87.25;98504.55;1830126;76;21112;-64
2021/11/03 11:50:57;;;;;;;10.78;7.55;;;;;;;9.95;86.49;98497.52;1798070;78;20976;-66
2021/11/03 11:53:33;;;;;;;12.05;8.08;;;;;;;9.82;86.40;98495.32;1798555;78;21598;-64
2021/11/03 11:56:19;;;;;;;10.65;7.58;;;;;;;9.68;86.34;98499.27;1798400;78;21000;-65
2021/11/03 11:59:02;;;;;;;12.33;8.63;;;;;;;9.60;86.56;98501.88;1772313;78;21625;-65
2021/11/03 12:01:49;;;;;;;12.00;8.10;;;;;;;9.64;86.90;98504.69;1811235;78;21619;-64
2021/11/03 12:04:32;;;;;;;;;;;;;;;9.70;86.85;98501.33;1799771;78;20982;-64
2021/11/03 12:07:19;;;;;;;12.10;8.73;;;;;;;9.62;86.28;98507.84;1792167;78;21139;-64
2021/11/03 12:11:23;;;;;;;11.35;8.18;;;;;;;9.66;86.87;98499.83;1812749;77;22434;-64
2021/11/03 12:14:02;;;;;;;13.68;7.55;;;;;;;9.67;86.92;98501.05;1819328;77;21044;-65